sensor_id;sensor_type;location;lat;lon;timestamp;P1;durP1;ratioP1;P2;durP2;ratioP2
18338;SDS011;9295;44.484;11.240;2022-12-18T00:00:08;14.23;;;7.33;;
18338;SDS011;9295;44.484;11.240;2022-12-18T00:02:40;10.90;;;7.33;;
18338;SDS011;9295;44.484;11.240;2022-12-18T00:05:08;14.60;;;7.97;;
18338;SDS011;9295;44.484;11.240;2022-12-18T00:07:37;10.60;;;7.60;;
18338;SDS011;9295;44.484;11.240;2022-12-18T00:10:06;14.03;;;8.37;;
18338;SDS011;9295;44.484;11.240;2022-12-18T00:12:35;15.03;;;8.53;;
18338;SDS011;9295;44.484;11.240;2022-12-18T00:15:03;12.00;;;8.37;;
18338;SDS011;9295;44.484;11.240;2022-12-18T00:17:34;16.10;;;8.43;;
18338;SDS011;9295;44.484;11.240;2022-12-18T00:20:03;11.97;;;8.50;;
18338;SDS011;9295;44.484;11.240;2022-12-18T00:22:31;12.77;;;8.53;;
18338;SDS011;9295;44.484;11.240;2022-12-18T00:25:00;10.40;;;7.53;;
18338;SDS011;9295;44.484;11.240;2022-12-18T00:27:28;11.47;;;7.90;;
18338;SDS011;9295;44.484;11.240;2022-12-18T00:29:57;13.00;;;8.60;;
18338;SDS011;9295;44.484;11.240;2022-12-18T00:32:25;11.23;;;7.33;;
18338;SDS011;9295;44.484;11.240;2022-12-18T00:34:55;13.07;;;7.83;;
18338;SDS011;9295;44.484;11.240;2022-12-18T00:37:24;11.83;;;7.80;;
18338;SDS011;9295;44.484;11.240;2022-12-18T00:39:52;12.50;;;7.63;;
18338;SDS011;9295;44.484;11.240;2022-12-18T00:42:40;17.30;;;9.10;;
18338;SDS011;9295;44.484;11.240;2022-12-18T00:45:26;11.57;;;8.00;;
18338;SDS011;9295;44.484;11.240;2022-12-18T00:47:56;10.77;;;7.37;;
18338;SDS011;9295;44.484;11.240;2022-12-18T00:50:27;12.23;;;8.63;;
18338;SDS011;9295;44.484;11.240;2022-12-18T00:52:55;12.50;;;8.30;;
18338;SDS011;9295;44.484;11.240;2022-12-18T00:55:23;11.17;;;8.40;;
18338;SDS011;9295;44.484;11.240;2022-12-18T00:57:52;13.27;;;9.20;;
18338;SDS011;9295;44.484;11.240;2022-12-18T01:00:20;13.43;;;8.70;;
18338;SDS011;9295;44.484;11.240;2022-12-18T01:02:49;14.00;;;9.30;;
18338;SDS011;9295;44.484;11.240;2022-12-18T01:05:18;12.30;;;8.87;;
18338;SDS011;9295;44.484;11.240;2022-12-18T01:07:48;14.87;;;9.37;;
18338;SDS011;9295;44.484;11.240;2022-12-18T01:10:17;14.07;;;9.90;;
18338;SDS011;9295;44.484;11.240;2022-12-18T01:12:46;14.90;;;9.33;;
18338;SDS011;9295;44.484;11.240;2022-12-18T01:15:17;14.47;;;9.07;;
18338;SDS011;9295;44.484;11.240;2022-12-18T01:17:46;12.80;;;8.83;;
18338;SDS011;9295;44.484;11.240;2022-12-18T01:20:15;14.90;;;9.30;;
18338;SDS011;9295;44.484;11.240;2022-12-18T01:22:44;13.93;;;9.10;;
18338;SDS011;9295;44.484;11.240;2022-12-18T01:25:14;15.97;;;10.03;;
18338;SDS011;9295;44.484;11.240;2022-12-18T01:27:43;13.10;;;9.07;;
18338;SDS011;9295;44.484;11.240;2022-12-18T01:30:11;16.33;;;9.80;;
18338;SDS011;9295;44.484;11.240;2022-12-18T01:32:40;15.73;;;9.60;;
18338;SDS011;9295;44.484;11.240;2022-12-18T01:35:09;14.23;;;9.00;;
18338;SDS011;9295;44.484;11.240;2022-12-18T01:37:37;15.90;;;9.10;;
18338;SDS011;9295;44.484;11.240;2022-12-18T01:40:06;12.10;;;8.80;;
18338;SDS011;9295;44.484;11.240;2022-12-18T01:42:37;14.37;;;9.53;;
18338;SDS011;9295;44.484;11.240;2022-12-18T01:45:09;14.57;;;8.90;;
18338;SDS011;9295;44.484;11.240;2022-12-18T01:47:52;12.73;;;9.57;;
18338;SDS011;9295;44.484;11.240;2022-12-18T01:50:23;11.60;;;8.40;;
18338;SDS011;9295;44.484;11.240;2022-12-18T01:52:55;12.33;;;8.90;;
18338;SDS011;9295;44.484;11.240;2022-12-18T01:55:26;12.90;;;8.23;;
18338;SDS011;9295;44.484;11.240;2022-12-18T01:57:59;14.30;;;9.00;;
18338;SDS011;9295;44.484;11.240;2022-12-18T02:00:29;13.70;;;9.30;;
18338;SDS011;9295;44.484;11.240;2022-12-18T02:02:58;22.73;;;9.00;;
18338;SDS011;9295;44.484;11.240;2022-12-18T02:05:33;13.70;;;9.73;;
18338;SDS011;9295;44.484;11.240;2022-12-18T02:08:09;16.50;;;9.13;;
18338;SDS011;9295;44.484;11.240;2022-12-18T02:10:45;16.70;;;9.73;;
18338;SDS011;9295;44.484;11.240;2022-12-18T02:13:26;12.83;;;9.60;;
18338;SDS011;9295;44.484;11.240;2022-12-18T02:16:06;12.10;;;8.97;;
18338;SDS011;9295;44.484;11.240;2022-12-18T02:18:42;12.70;;;9.30;;
18338;SDS011;9295;44.484;11.240;2022-12-18T02:21:19;12.70;;;8.87;;
18338;SDS011;9295;44.484;11.240;2022-12-18T02:23:56;15.00;;;9.23;;
18338;SDS011;9295;44.484;11.240;2022-12-18T02:26:40;16.70;;;10.37;;
18338;SDS011;9295;44.484;11.240;2022-12-18T02:29:14;15.50;;;8.83;;
18338;SDS011;9295;44.484;11.240;2022-12-18T02:31:47;11.57;;;8.73;;
18338;SDS011;9295;44.484;11.240;2022-12-18T02:34:19;12.67;;;8.50;;
18338;SDS011;9295;44.484;11.240;2022-12-18T02:36:50;12.30;;;8.00;;
18338;SDS011;9295;44.484;11.240;2022-12-18T02:39:22;14.60;;;9.27;;
18338;SDS011;9295;44.484;11.240;2022-12-18T02:42:01;12.83;;;8.90;;
18338;SDS011;9295;44.484;11.240;2022-12-18T02:44:34;15.00;;;9.53;;
18338;SDS011;9295;44.484;11.240;2022-12-18T02:47:09;16.00;;;9.60;;
18338;SDS011;9295;44.484;11.240;2022-12-18T02:49:41;14.90;;;10.10;;
18338;SDS011;9295;44.484;11.240;2022-12-18T02:52:18;13.50;;;9.10;;
18338;SDS011;9295;44.484;11.240;2022-12-18T02:55:01;12.60;;;8.93;;
18338;SDS011;9295;44.484;11.240;2022-12-18T02:57:46;13.50;;;9.00;;
18338;SDS011;9295;44.484;11.240;2022-12-18T03:00:21;12.50;;;9.67;;
18338;SDS011;9295;44.484;11.240;2022-12-18T03:02:53;13.00;;;8.77;;
18338;SDS011;9295;44.484;11.240;2022-12-18T03:05:27;13.33;;;9.03;;
18338;SDS011;9295;44.484;11.240;2022-12-18T03:08:02;11.27;;;9.53;;
18338;SDS011;9295;44.484;11.240;2022-12-18T03:10:38;12.90;;;9.90;;
18338;SDS011;9295;44.484;11.240;2022-12-18T03:13:13;13.60;;;9.43;;
18338;SDS011;9295;44.484;11.240;2022-12-18T03:15:47;14.00;;;10.10;;
18338;SDS011;9295;44.484;11.240;2022-12-18T03:18:19;11.67;;;8.90;;
18338;SDS011;9295;44.484;11.240;2022-12-18T03:20:51;12.70;;;9.13;;
18338;SDS011;9295;44.484;11.240;2022-12-18T03:23:24;16.33;;;9.50;;
18338;SDS011;9295;44.484;11.240;2022-12-18T03:25:58;12.60;;;9.10;;
18338;SDS011;9295;44.484;11.240;2022-12-18T03:28:38;14.30;;;10.40;;
18338;SDS011;9295;44.484;11.240;2022-12-18T03:31:13;11.53;;;8.73;;
18338;SDS011;9295;44.484;11.240;2022-12-18T03:33:44;10.97;;;8.10;;
18338;SDS011;9295;44.484;11.240;2022-12-18T03:36:16;12.60;;;9.43;;
18338;SDS011;9295;44.484;11.240;2022-12-18T03:38:46;15.30;;;10.07;;
18338;SDS011;9295;44.484;11.240;2022-12-18T03:41:17;12.20;;;9.40;;
18338;SDS011;9295;44.484;11.240;2022-12-18T03:44:19;11.53;;;8.90;;
18338;SDS011;9295;44.484;11.240;2022-12-18T03:46:55;12.83;;;8.83;;
18338;SDS011;9295;44.484;11.240;2022-12-18T03:49:34;14.00;;;9.23;;
18338;SDS011;9295;44.484;11.240;2022-12-18T03:52:07;12.77;;;9.50;;
18338;SDS011;9295;44.484;11.240;2022-12-18T03:54:40;12.43;;;9.47;;
18338;SDS011;9295;44.484;11.240;2022-12-18T03:57:14;12.10;;;9.00;;
18338;SDS011;9295;44.484;11.240;2022-12-18T03:59:49;11.90;;;9.07;;
18338;SDS011;9295;44.484;11.240;2022-12-18T04:02:25;10.60;;;8.53;;
18338;SDS011;9295;44.484;11.240;2022-12-18T04:04:57;10.93;;;9.00;;
18338;SDS011;9295;44.484;11.240;2022-12-18T04:07:29;13.20;;;9.33;;
18338;SDS011;9295;44.484;11.240;2022-12-18T04:09:59;11.40;;;9.07;;
18338;SDS011;9295;44.484;11.240;2022-12-18T04:12:31;12.33;;;9.83;;
18338;SDS011;9295;44.484;11.240;2022-12-18T04:15:01;13.23;;;9.07;;
18338;SDS011;9295;44.484;11.240;2022-12-18T04:17:30;11.33;;;9.00;;
18338;SDS011;9295;44.484;11.240;2022-12-18T04:19:58;12.63;;;10.00;;
18338;SDS011;9295;44.484;11.240;2022-12-18T04:22:27;12.70;;;9.43;;
18338;SDS011;9295;44.484;11.240;2022-12-18T04:24:58;13.60;;;8.97;;
18338;SDS011;9295;44.484;11.240;2022-12-18T04:27:34;14.20;;;9.30;;
18338;SDS011;9295;44.484;11.240;2022-12-18T04:30:06;13.03;;;9.03;;
18338;SDS011;9295;44.484;11.240;2022-12-18T04:32:35;12.07;;;9.00;;
18338;SDS011;9295;44.484;11.240;2022-12-18T04:35:04;11.17;;;8.60;;
18338;SDS011;9295;44.484;11.240;2022-12-18T04:37:40;11.67;;;8.80;;
18338;SDS011;9295;44.484;11.240;2022-12-18T04:40:09;13.07;;;9.97;;
18338;SDS011;9295;44.484;11.240;2022-12-18T04:42:43;13.10;;;9.13;;
18338;SDS011;9295;44.484;11.240;2022-12-18T04:45:12;12.60;;;9.40;;
18338;SDS011;9295;44.484;11.240;2022-12-18T04:47:41;12.17;;;9.67;;
18338;SDS011;9295;44.484;11.240;2022-12-18T04:50:09;13.87;;;9.50;;
18338;SDS011;9295;44.484;11.240;2022-12-18T04:52:38;13.20;;;10.50;;
18338;SDS011;9295;44.484;11.240;2022-12-18T04:55:06;13.17;;;10.07;;
18338;SDS011;9295;44.484;11.240;2022-12-18T04:57:35;13.17;;;8.67;;
18338;SDS011;9295;44.484;11.240;2022-12-18T05:00:04;15.53;;;9.70;;
18338;SDS011;9295;44.484;11.240;2022-12-18T05:02:34;11.63;;;9.37;;
18338;SDS011;9295;44.484;11.240;2022-12-18T05:05:03;12.93;;;9.90;;
18338;SDS011;9295;44.484;11.240;2022-12-18T05:07:33;11.60;;;9.00;;
18338;SDS011;9295;44.484;11.240;2022-12-18T05:10:01;15.00;;;9.90;;
18338;SDS011;9295;44.484;11.240;2022-12-18T05:12:31;13.70;;;9.70;;
18338;SDS011;9295;44.484;11.240;2022-12-18T05:14:59;14.50;;;9.83;;
18338;SDS011;9295;44.484;11.240;2022-12-18T05:17:28;15.70;;;11.17;;
18338;SDS011;9295;44.484;11.240;2022-12-18T05:19:57;14.50;;;9.90;;
18338;SDS011;9295;44.484;11.240;2022-12-18T05:22:26;22.57;;;10.60;;
18338;SDS011;9295;44.484;11.240;2022-12-18T05:24:54;13.43;;;10.10;;
18338;SDS011;9295;44.484;11.240;2022-12-18T05:27:23;11.73;;;9.77;;
18338;SDS011;9295;44.484;11.240;2022-12-18T05:29:51;13.23;;;9.50;;
18338;SDS011;9295;44.484;11.240;2022-12-18T05:32:20;14.37;;;10.30;;
18338;SDS011;9295;44.484;11.240;2022-12-18T05:34:48;14.10;;;9.40;;
18338;SDS011;9295;44.484;11.240;2022-12-18T05:37:18;13.57;;;9.77;;
18338;SDS011;9295;44.484;11.240;2022-12-18T05:39:47;14.40;;;9.30;;
18338;SDS011;9295;44.484;11.240;2022-12-18T05:42:15;12.40;;;9.53;;
18338;SDS011;9295;44.484;11.240;2022-12-18T05:44:44;15.83;;;9.20;;
18338;SDS011;9295;44.484;11.240;2022-12-18T05:47:12;12.60;;;8.67;;
18338;SDS011;9295;44.484;11.240;2022-12-18T05:49:41;14.30;;;8.10;;
18338;SDS011;9295;44.484;11.240;2022-12-18T05:52:09;12.33;;;9.00;;
18338;SDS011;9295;44.484;11.240;2022-12-18T05:54:39;12.27;;;9.00;;
18338;SDS011;9295;44.484;11.240;2022-12-18T05:57:07;13.47;;;9.90;;
18338;SDS011;9295;44.484;11.240;2022-12-18T05:59:36;14.40;;;9.60;;
18338;SDS011;9295;44.484;11.240;2022-12-18T06:02:04;11.50;;;8.70;;
18338;SDS011;9295;44.484;11.240;2022-12-18T06:04:33;12.17;;;9.10;;
18338;SDS011;9295;44.484;11.240;2022-12-18T06:07:01;16.87;;;8.73;;
18338;SDS011;9295;44.484;11.240;2022-12-18T06:09:30;13.10;;;8.40;;
18338;SDS011;9295;44.484;11.240;2022-12-18T06:12:00;11.27;;;7.97;;
18338;SDS011;9295;44.484;11.240;2022-12-18T06:14:28;13.17;;;9.13;;
18338;SDS011;9295;44.484;11.240;2022-12-18T06:16:57;12.83;;;9.30;;
18338;SDS011;9295;44.484;11.240;2022-12-18T06:19:25;11.80;;;9.00;;
18338;SDS011;9295;44.484;11.240;2022-12-18T06:21:53;13.00;;;8.83;;
18338;SDS011;9295;44.484;11.240;2022-12-18T06:24:24;17.23;;;8.73;;
18338;SDS011;9295;44.484;11.240;2022-12-18T06:26:53;11.50;;;8.60;;
18338;SDS011;9295;44.484;11.240;2022-12-18T06:29:23;11.30;;;8.50;;
18338;SDS011;9295;44.484;11.240;2022-12-18T06:31:51;15.33;;;8.70;;
18338;SDS011;9295;44.484;11.240;2022-12-18T06:34:19;11.60;;;8.30;;
18338;SDS011;9295;44.484;11.240;2022-12-18T06:36:48;13.70;;;8.40;;
18338;SDS011;9295;44.484;11.240;2022-12-18T06:39:16;11.53;;;8.20;;
18338;SDS011;9295;44.484;11.240;2022-12-18T06:41:45;12.97;;;9.47;;
18338;SDS011;9295;44.484;11.240;2022-12-18T06:44:13;12.00;;;8.90;;
18338;SDS011;9295;44.484;11.240;2022-12-18T06:46:43;14.77;;;9.40;;
18338;SDS011;9295;44.484;11.240;2022-12-18T06:49:11;18.50;;;9.50;;
18338;SDS011;9295;44.484;11.240;2022-12-18T06:51:40;11.63;;;8.87;;
18338;SDS011;9295;44.484;11.240;2022-12-18T06:54:09;15.13;;;10.50;;
18338;SDS011;9295;44.484;11.240;2022-12-18T06:56:37;11.50;;;8.53;;
18338;SDS011;9295;44.484;11.240;2022-12-18T06:59:05;14.07;;;9.37;;
18338;SDS011;9295;44.484;11.240;2022-12-18T07:01:34;13.87;;;9.87;;
18338;SDS011;9295;44.484;11.240;2022-12-18T07:04:04;11.70;;;8.47;;
18338;SDS011;9295;44.484;11.240;2022-12-18T07:06:33;18.63;;;8.97;;
18338;SDS011;9295;44.484;11.240;2022-12-18T07:09:01;14.17;;;9.33;;
18338;SDS011;9295;44.484;11.240;2022-12-18T07:11:31;12.73;;;8.60;;
18338;SDS011;9295;44.484;11.240;2022-12-18T07:14:00;13.60;;;8.80;;
18338;SDS011;9295;44.484;11.240;2022-12-18T07:16:29;11.60;;;8.07;;
18338;SDS011;9295;44.484;11.240;2022-12-18T07:18:57;11.87;;;8.30;;
18338;SDS011;9295;44.484;11.240;2022-12-18T07:21:27;13.93;;;8.37;;
18338;SDS011;9295;44.484;11.240;2022-12-18T07:23:55;13.83;;;8.57;;
18338;SDS011;9295;44.484;11.240;2022-12-18T07:26:24;11.60;;;8.37;;
18338;SDS011;9295;44.484;11.240;2022-12-18T07:28:54;10.07;;;7.50;;
18338;SDS011;9295;44.484;11.240;2022-12-18T07:31:24;9.93;;;7.00;;
18338;SDS011;9295;44.484;11.240;2022-12-18T07:33:54;8.10;;;6.67;;
18338;SDS011;9295;44.484;11.240;2022-12-18T07:36:22;8.17;;;6.67;;
18338;SDS011;9295;44.484;11.240;2022-12-18T07:38:52;8.60;;;6.27;;
18338;SDS011;9295;44.484;11.240;2022-12-18T07:41:21;8.10;;;6.67;;
18338;SDS011;9295;44.484;11.240;2022-12-18T07:43:49;9.67;;;7.37;;
18338;SDS011;9295;44.484;11.240;2022-12-18T07:46:18;13.93;;;7.93;;
18338;SDS011;9295;44.484;11.240;2022-12-18T07:48:46;11.93;;;9.20;;
18338;SDS011;9295;44.484;11.240;2022-12-18T07:51:16;11.23;;;8.00;;
18338;SDS011;9295;44.484;11.240;2022-12-18T07:53:45;14.47;;;8.77;;
18338;SDS011;9295;44.484;11.240;2022-12-18T07:56:19;12.53;;;8.53;;
18338;SDS011;9295;44.484;11.240;2022-12-18T07:58:57;11.57;;;8.33;;
18338;SDS011;9295;44.484;11.240;2022-12-18T08:01:29;11.90;;;8.87;;
18338;SDS011;9295;44.484;11.240;2022-12-18T08:03:58;11.20;;;7.60;;
18338;SDS011;9295;44.484;11.240;2022-12-18T08:06:26;10.50;;;7.73;;
18338;SDS011;9295;44.484;11.240;2022-12-18T08:08:55;12.23;;;8.10;;
18338;SDS011;9295;44.484;11.240;2022-12-18T08:11:26;14.63;;;8.43;;
18338;SDS011;9295;44.484;11.240;2022-12-18T08:13:55;13.53;;;8.50;;
18338;SDS011;9295;44.484;11.240;2022-12-18T08:16:26;13.87;;;9.53;;
18338;SDS011;9295;44.484;11.240;2022-12-18T08:18:54;19.17;;;11.47;;
18338;SDS011;9295;44.484;11.240;2022-12-18T08:21:24;15.80;;;10.97;;
18338;SDS011;9295;44.484;11.240;2022-12-18T08:23:54;16.67;;;10.80;;
18338;SDS011;9295;44.484;11.240;2022-12-18T08:26:26;19.80;;;10.90;;
18338;SDS011;9295;44.484;11.240;2022-12-18T08:28:57;16.53;;;11.20;;
18338;SDS011;9295;44.484;11.240;2022-12-18T08:31:28;17.43;;;10.87;;
18338;SDS011;9295;44.484;11.240;2022-12-18T08:33:57;12.53;;;9.93;;
18338;SDS011;9295;44.484;11.240;2022-12-18T08:36:26;13.93;;;9.87;;
18338;SDS011;9295;44.484;11.240;2022-12-18T08:38:54;16.27;;;10.23;;
18338;SDS011;9295;44.484;11.240;2022-12-18T08:41:25;12.43;;;9.70;;
18338;SDS011;9295;44.484;11.240;2022-12-18T08:43:54;13.23;;;9.50;;
18338;SDS011;9295;44.484;11.240;2022-12-18T08:46:40;13.27;;;9.40;;
18338;SDS011;9295;44.484;11.240;2022-12-18T08:49:10;13.10;;;9.90;;
18338;SDS011;9295;44.484;11.240;2022-12-18T08:51:39;13.30;;;10.20;;
18338;SDS011;9295;44.484;11.240;2022-12-18T08:54:08;18.27;;;10.70;;
18338;SDS011;9295;44.484;11.240;2022-12-18T08:56:40;15.57;;;10.50;;
18338;SDS011;9295;44.484;11.240;2022-12-18T08:59:09;15.10;;;10.80;;
18338;SDS011;9295;44.484;11.240;2022-12-18T09:01:45;15.47;;;10.67;;
18338;SDS011;9295;44.484;11.240;2022-12-18T09:04:14;13.40;;;9.77;;
18338;SDS011;9295;44.484;11.240;2022-12-18T09:06:43;14.70;;;10.70;;
18338;SDS011;9295;44.484;11.240;2022-12-18T09:09:11;14.07;;;10.33;;
18338;SDS011;9295;44.484;11.240;2022-12-18T09:11:43;20.30;;;11.33;;
18338;SDS011;9295;44.484;11.240;2022-12-18T09:14:12;15.23;;;10.50;;
18338;SDS011;9295;44.484;11.240;2022-12-18T09:16:40;15.00;;;10.13;;
18338;SDS011;9295;44.484;11.240;2022-12-18T09:19:09;14.20;;;10.33;;
18338;SDS011;9295;44.484;11.240;2022-12-18T09:21:38;13.10;;;9.37;;
18338;SDS011;9295;44.484;11.240;2022-12-18T09:24:16;14.80;;;9.83;;
18338;SDS011;9295;44.484;11.240;2022-12-18T09:26:53;14.33;;;9.33;;
18338;SDS011;9295;44.484;11.240;2022-12-18T09:29:23;13.13;;;9.90;;
18338;SDS011;9295;44.484;11.240;2022-12-18T09:31:52;15.93;;;9.20;;
18338;SDS011;9295;44.484;11.240;2022-12-18T09:34:21;11.93;;;9.00;;
18338;SDS011;9295;44.484;11.240;2022-12-18T09:36:49;12.20;;;8.67;;
18338;SDS011;9295;44.484;11.240;2022-12-18T09:39:18;13.47;;;9.30;;
18338;SDS011;9295;44.484;11.240;2022-12-18T09:41:50;14.43;;;10.07;;
18338;SDS011;9295;44.484;11.240;2022-12-18T09:44:24;19.53;;;10.20;;
18338;SDS011;9295;44.484;11.240;2022-12-18T09:47:00;13.73;;;9.67;;
18338;SDS011;9295;44.484;11.240;2022-12-18T09:49:34;14.73;;;9.50;;
18338;SDS011;9295;44.484;11.240;2022-12-18T09:52:09;12.10;;;9.07;;
18338;SDS011;9295;44.484;11.240;2022-12-18T09:54:43;13.90;;;10.10;;
18338;SDS011;9295;44.484;11.240;2022-12-18T09:57:15;13.13;;;9.63;;
18338;SDS011;9295;44.484;11.240;2022-12-18T09:59:49;13.60;;;9.27;;
18338;SDS011;9295;44.484;11.240;2022-12-18T10:02:23;16.10;;;8.77;;
18338;SDS011;9295;44.484;11.240;2022-12-18T10:04:58;14.87;;;10.23;;
18338;SDS011;9295;44.484;11.240;2022-12-18T10:07:38;15.67;;;8.90;;
18338;SDS011;9295;44.484;11.240;2022-12-18T10:10:27;14.80;;;10.23;;
18338;SDS011;9295;44.484;11.240;2022-12-18T10:13:07;13.83;;;8.93;;
18338;SDS011;9295;44.484;11.240;2022-12-18T10:15:50;13.70;;;10.30;;
18338;SDS011;9295;44.484;11.240;2022-12-18T10:18:29;16.10;;;11.83;;
18338;SDS011;9295;44.484;11.240;2022-12-18T10:21:18;15.57;;;10.03;;
18338;SDS011;9295;44.484;11.240;2022-12-18T10:23:53;14.87;;;10.17;;
18338;SDS011;9295;44.484;11.240;2022-12-18T10:26:27;13.10;;;9.70;;
18338;SDS011;9295;44.484;11.240;2022-12-18T10:28:56;13.20;;;9.50;;
18338;SDS011;9295;44.484;11.240;2022-12-18T10:31:32;14.27;;;9.60;;
18338;SDS011;9295;44.484;11.240;2022-12-18T10:34:01;22.83;;;10.57;;
18338;SDS011;9295;44.484;11.240;2022-12-18T10:36:29;12.90;;;9.63;;
18338;SDS011;9295;44.484;11.240;2022-12-18T10:39:02;15.80;;;9.70;;
18338;SDS011;9295;44.484;11.240;2022-12-18T10:41:42;18.50;;;10.13;;
18338;SDS011;9295;44.484;11.240;2022-12-18T10:44:14;24.33;;;11.37;;
18338;SDS011;9295;44.484;11.240;2022-12-18T10:46:46;14.67;;;10.23;;
18338;SDS011;9295;44.484;11.240;2022-12-18T10:49:23;15.73;;;10.20;;
18338;SDS011;9295;44.484;11.240;2022-12-18T10:52:04;14.00;;;9.67;;
18338;SDS011;9295;44.484;11.240;2022-12-18T10:54:35;14.60;;;10.50;;
18338;SDS011;9295;44.484;11.240;2022-12-18T10:57:15;15.33;;;10.23;;
18338;SDS011;9295;44.484;11.240;2022-12-18T10:59:51;16.90;;;10.07;;
18338;SDS011;9295;44.484;11.240;2022-12-18T11:02:33;18.20;;;10.20;;
18338;SDS011;9295;44.484;11.240;2022-12-18T11:05:03;17.73;;;10.77;;
18338;SDS011;9295;44.484;11.240;2022-12-18T11:07:54;16.90;;;9.97;;
18338;SDS011;9295;44.484;11.240;2022-12-18T11:10:25;12.90;;;9.23;;
18338;SDS011;9295;44.484;11.240;2022-12-18T11:13:08;16.77;;;10.50;;
18338;SDS011;9295;44.484;11.240;2022-12-18T11:15:39;16.93;;;9.77;;
18338;SDS011;9295;44.484;11.240;2022-12-18T11:18:16;13.53;;;9.57;;
18338;SDS011;9295;44.484;11.240;2022-12-18T11:20:51;15.00;;;10.70;;
18338;SDS011;9295;44.484;11.240;2022-12-18T11:23:24;19.13;;;10.37;;
18338;SDS011;9295;44.484;11.240;2022-12-18T11:25:54;17.80;;;10.90;;
18338;SDS011;9295;44.484;11.240;2022-12-18T11:28:25;17.93;;;12.60;;
18338;SDS011;9295;44.484;11.240;2022-12-18T11:31:11;14.83;;;10.20;;
18338;SDS011;9295;44.484;11.240;2022-12-18T11:34:03;13.50;;;9.70;;
18338;SDS011;9295;44.484;11.240;2022-12-18T11:36:57;14.50;;;10.73;;
18338;SDS011;9295;44.484;11.240;2022-12-18T11:39:29;15.50;;;10.40;;
18338;SDS011;9295;44.484;11.240;2022-12-18T11:42:04;15.77;;;10.93;;
18338;SDS011;9295;44.484;11.240;2022-12-18T11:44:41;16.70;;;11.20;;
18338;SDS011;9295;44.484;11.240;2022-12-18T11:47:16;17.77;;;12.10;;
18338;SDS011;9295;44.484;11.240;2022-12-18T11:49:54;17.80;;;11.47;;
18338;SDS011;9295;44.484;11.240;2022-12-18T11:52:25;14.73;;;10.43;;
18338;SDS011;9295;44.484;11.240;2022-12-18T11:54:56;20.93;;;11.60;;
18338;SDS011;9295;44.484;11.240;2022-12-18T11:57:31;18.90;;;10.70;;
18338;SDS011;9295;44.484;11.240;2022-12-18T12:00:07;16.43;;;11.30;;
18338;SDS011;9295;44.484;11.240;2022-12-18T12:02:49;17.10;;;10.50;;
18338;SDS011;9295;44.484;11.240;2022-12-18T12:05:53;15.43;;;10.53;;
18338;SDS011;9295;44.484;11.240;2022-12-18T12:08:33;14.33;;;10.30;;
18338;SDS011;9295;44.484;11.240;2022-12-18T12:11:10;17.33;;;11.40;;
18338;SDS011;9295;44.484;11.240;2022-12-18T12:13:46;19.27;;;11.37;;
18338;SDS011;9295;44.484;11.240;2022-12-18T12:16:21;15.30;;;10.27;;
18338;SDS011;9295;44.484;11.240;2022-12-18T12:19:06;15.50;;;10.50;;
18338;SDS011;9295;44.484;11.240;2022-12-18T12:21:49;14.00;;;10.87;;
18338;SDS011;9295;44.484;11.240;2022-12-18T12:24:28;16.97;;;11.93;;
18338;SDS011;9295;44.484;11.240;2022-12-18T12:27:10;15.73;;;10.33;;
18338;SDS011;9295;44.484;11.240;2022-12-18T12:29:50;19.63;;;10.50;;
18338;SDS011;9295;44.484;11.240;2022-12-18T12:32:35;17.77;;;11.13;;
18338;SDS011;9295;44.484;11.240;2022-12-18T12:35:18;17.90;;;10.90;;
18338;SDS011;9295;44.484;11.240;2022-12-18T12:38:00;16.13;;;11.20;;
18338;SDS011;9295;44.484;11.240;2022-12-18T12:40:36;14.53;;;10.40;;
18338;SDS011;9295;44.484;11.240;2022-12-18T12:43:28;15.40;;;11.00;;
18338;SDS011;9295;44.484;11.240;2022-12-18T12:46:03;14.90;;;10.50;;
18338;SDS011;9295;44.484;11.240;2022-12-18T12:48:35;15.43;;;11.20;;
18338;SDS011;9295;44.484;11.240;2022-12-18T12:51:12;14.37;;;9.33;;
18338;SDS011;9295;44.484;11.240;2022-12-18T12:53:45;17.77;;;10.90;;
18338;SDS011;9295;44.484;11.240;2022-12-18T12:56:15;14.97;;;11.13;;
18338;SDS011;9295;44.484;11.240;2022-12-18T12:58:50;14.83;;;10.33;;
18338;SDS011;9295;44.484;11.240;2022-12-18T13:01:28;14.13;;;9.23;;
18338;SDS011;9295;44.484;11.240;2022-12-18T13:04:05;16.00;;;10.30;;
18338;SDS011;9295;44.484;11.240;2022-12-18T13:06:45;16.73;;;10.53;;
18338;SDS011;9295;44.484;11.240;2022-12-18T13:09:18;21.53;;;10.90;;
18338;SDS011;9295;44.484;11.240;2022-12-18T13:11:47;15.40;;;9.90;;
18338;SDS011;9295;44.484;11.240;2022-12-18T13:14:34;16.67;;;11.00;;
18338;SDS011;9295;44.484;11.240;2022-12-18T13:17:14;18.93;;;11.10;;
18338;SDS011;9295;44.484;11.240;2022-12-18T13:19:44;14.07;;;9.77;;
18338;SDS011;9295;44.484;11.240;2022-12-18T13:22:20;14.13;;;10.30;;
18338;SDS011;9295;44.484;11.240;2022-12-18T13:24:51;14.33;;;9.60;;
18338;SDS011;9295;44.484;11.240;2022-12-18T13:36:36;17.40;;;11.47;;
18338;SDS011;9295;44.484;11.240;2022-12-18T13:48:28;18.30;;;12.37;;
18338;SDS011;9295;44.484;11.240;2022-12-18T13:51:00;17.67;;;12.10;;
18338;SDS011;9295;44.484;11.240;2022-12-18T13:53:34;18.20;;;12.40;;
18338;SDS011;9295;44.484;11.240;2022-12-18T13:56:07;21.03;;;12.27;;
18338;SDS011;9295;44.484;11.240;2022-12-18T13:58:37;19.60;;;12.53;;
18338;SDS011;9295;44.484;11.240;2022-12-18T14:01:13;23.13;;;13.13;;
18338;SDS011;9295;44.484;11.240;2022-12-18T14:04:08;16.40;;;12.63;;
18338;SDS011;9295;44.484;11.240;2022-12-18T14:06:37;25.07;;;12.77;;
18338;SDS011;9295;44.484;11.240;2022-12-18T14:09:06;18.83;;;12.63;;
18338;SDS011;9295;44.484;11.240;2022-12-18T14:11:47;19.10;;;12.90;;
18338;SDS011;9295;44.484;11.240;2022-12-18T14:14:18;19.70;;;12.83;;
18338;SDS011;9295;44.484;11.240;2022-12-18T14:16:49;19.30;;;13.23;;
18338;SDS011;9295;44.484;11.240;2022-12-18T14:19:18;18.83;;;12.60;;
18338;SDS011;9295;44.484;11.240;2022-12-18T14:21:48;17.30;;;13.87;;
18338;SDS011;9295;44.484;11.240;2022-12-18T14:24:18;22.13;;;13.83;;
18338;SDS011;9295;44.484;11.240;2022-12-18T14:26:48;18.40;;;13.37;;
18338;SDS011;9295;44.484;11.240;2022-12-18T14:29:20;19.53;;;14.23;;
18338;SDS011;9295;44.484;11.240;2022-12-18T14:32:12;18.67;;;12.83;;
18338;SDS011;9295;44.484;11.240;2022-12-18T14:34:45;20.17;;;13.27;;
18338;SDS011;9295;44.484;11.240;2022-12-18T14:37:15;18.20;;;13.70;;
18338;SDS011;9295;44.484;11.240;2022-12-18T14:39:57;18.37;;;12.63;;
18338;SDS011;9295;44.484;11.240;2022-12-18T14:42:36;23.70;;;14.37;;
18338;SDS011;9295;44.484;11.240;2022-12-18T14:48:11;23.13;;;12.70;;
18338;SDS011;9295;44.484;11.240;2022-12-18T14:50:55;20.97;;;13.90;;
18338;SDS011;9295;44.484;11.240;2022-12-18T14:53:31;21.90;;;14.80;;
18338;SDS011;9295;44.484;11.240;2022-12-18T14:56:02;21.90;;;15.10;;
18338;SDS011;9295;44.484;11.240;2022-12-18T14:58:31;19.80;;;15.13;;
18338;SDS011;9295;44.484;11.240;2022-12-18T15:01:01;23.63;;;15.53;;
18338;SDS011;9295;44.484;11.240;2022-12-18T15:03:30;22.07;;;14.87;;
18338;SDS011;9295;44.484;11.240;2022-12-18T15:08:43;23.10;;;15.10;;
18338;SDS011;9295;44.484;11.240;2022-12-18T15:11:28;26.80;;;16.83;;
18338;SDS011;9295;44.484;11.240;2022-12-18T15:16:59;35.07;;;21.60;;
18338;SDS011;9295;44.484;11.240;2022-12-18T15:19:32;28.03;;;18.40;;
18338;SDS011;9295;44.484;11.240;2022-12-18T15:22:17;30.03;;;18.13;;
18338;SDS011;9295;44.484;11.240;2022-12-18T15:24:48;52.80;;;33.57;;
18338;SDS011;9295;44.484;11.240;2022-12-18T15:27:25;58.43;;;31.13;;
18338;SDS011;9295;44.484;11.240;2022-12-18T15:30:03;48.00;;;31.50;;